Nautilus Survey — LIXR — position and weather

sailwx.info

Track history (hours):
 
Tides and Currents Weather Stations Pressure Air Temp Water Temp Dewpoint Dewpoint Depression Visibility Wind Speed Wind Dir Waves Ship Positions

Nautilus Survey

Last reported at 2017-Apr-19 15:51 UTC. Time now 2017-Apr-24 13:21 UTC.
Position N 66°33' E 013°01'.

Length 22 m; draft 2 m.

Type: Dredging. MMSI: 259464000.

Date/timePositionNaut miles runAvg speedWind from/ knotsBaromVisibWave heightAir tempDewpointWater temp
2017-Apr-19 15:51N 66°33' E 013°01'2310.0
2017-Apr-19 13:33N 66°11' E 012°40'010.9
2017-Apr-19 13:30N 66°11' E 012°40'11 0.5
2017-Apr-18 15:13N 66°22' E 012°38'0 0.2
2017-Apr-18 15:00N 66°22' E 012°38'0 0.0
2017-Apr-18 14:30N 66°22' E 012°38'0 0.0
2017-Apr-18 13:30N 66°22' E 012°38'0 0.0
2017-Apr-18 13:00N 66°22' E 012°38'0 0.0
2017-Apr-18 12:30N 66°22' E 012°38'0 0.1
2017-Apr-18 12:00N 66°22' E 012°38'0 0.0
2017-Apr-18 11:31N 66°22' E 012°38'0 0.3
2017-Apr-18 11:00N 66°22' E 012°37'0 0.3
2017-Apr-18 10:30N 66°22' E 012°38'0 0.1
2017-Apr-18 09:58N 66°22' E 012°38'1 0.5
2017-Apr-18 08:02N 66°23' E 012°36'0 0.0
2017-Apr-18 07:52N 66°23' E 012°36'0 0.0
2017-Apr-18 07:23N 66°23' E 012°36'0 0.1
2017-Apr-18 07:00N 66°23' E 012°36'0 0.5
2017-Apr-18 06:31N 66°23' E 012°36'0 0.8
2017-Apr-18 05:57N 66°22' E 012°35'0 0.0
2017-Apr-18 05:30N 66°22' E 012°35'0 0.0
2017-Apr-18 05:01N 66°22' E 012°35'0 0.0
2017-Apr-18 04:30N 66°22' E 012°35'0 0.0
2017-Apr-18 04:00N 66°22' E 012°35'0 0.0
2017-Apr-18 03:28N 66°22' E 012°35'0 0.0
2017-Apr-18 03:00N 66°22' E 012°35'0 0.0
2017-Apr-18 02:30N 66°22' E 012°35'0 0.0
2017-Apr-18 01:57N 66°22' E 012°35'0 0.0
2017-Apr-18 01:28N 66°22' E 012°35'0 0.0
2017-Apr-18 01:01N 66°22' E 012°35'0 0.0
2017-Apr-18 00:30N 66°22' E 012°35'0 0.0
2017-Apr-17 23:58N 66°22' E 012°35'0 0.0
2017-Apr-17 23:30N 66°22' E 012°35'0 0.0
2017-Apr-17 23:00N 66°22' E 012°35'0 0.0
2017-Apr-17 22:30N 66°22' E 012°35'0 0.0
2017-Apr-17 22:00N 66°22' E 012°35'0 0.0
2017-Apr-17 21:30N 66°22' E 012°35'0 0.0
2017-Apr-17 21:00N 66°22' E 012°35'0 0.0
2017-Apr-17 20:30N 66°22' E 012°35'0 0.0
2017-Apr-17 20:00N 66°22' E 012°35'0 0.0
2017-Apr-17 19:30N 66°22' E 012°35'0 0.0
2017-Apr-17 19:00N 66°22' E 012°35'0 0.0
2017-Apr-17 18:30N 66°22' E 012°35'0 0.0
2017-Apr-17 17:59N 66°22' E 012°35'0 0.0
2017-Apr-17 17:30N 66°22' E 012°35'0 0.6
2017-Apr-17 16:57N 66°23' E 012°36'0 0.6
2017-Apr-17 16:30N 66°23' E 012°36'5 7.5
2017-Apr-17 15:50N 66°23' E 012°49'0 0.6
2017-Apr-17 15:30N 66°23' E 012°48'2 2.8
2017-Apr-17 14:56N 66°22' E 012°52'6 3.1
2017-Apr-17 12:59N 66°28' E 012°58'1 0.3
2017-Apr-17 08:27N 66°28' E 013°01'1 0.6
2017-Apr-17 06:30N 66°28' E 013°04'3 5.4
2017-Apr-17 05:58N 66°29' E 012°58'0 0.0
2017-Apr-17 03:11N 66°29' E 012°58'0 0.0
2017-Apr-17 02:06N 66°29' E 012°58'0 0.0
2017-Apr-16 23:33N 66°29' E 012°58'0 0.0
2017-Apr-16 23:29N 66°29' E 012°58'0 0.0
2017-Apr-16 18:09N 66°29' E 012°58'0 0.0
2017-Apr-16 17:53N 66°29' E 012°58'0 0.0
2017-Apr-16 17:07N 66°29' E 012°58'0 0.0
2017-Apr-16 16:59N 66°29' E 012°58'2 3.0
2017-Apr-16 16:23N 66°28' E 013°02'1 0.4
2017-Apr-16 13:02N 66°28' E 012°58'0 0.0
2017-Apr-16 12:48N 66°28' E 012°58'0 0.0
2017-Apr-16 12:30N 66°28' E 012°58'0 0.0
2017-Apr-16 11:58N 66°28' E 012°58'0 0.0
2017-Apr-16 10:41N 66°28' E 012°58'0 0.0
2017-Apr-16 10:23N 66°28' E 012°58'0 0.0
2017-Apr-16 09:47N 66°28' E 012°58'0 0.0
2017-Apr-16 09:28N 66°28' E 012°58'0 0.0
2017-Apr-16 09:00N 66°28' E 012°58'2 3.5
2017-Apr-16 08:23N 66°28' E 013°04'0 0.6
2017-Apr-16 07:58N 66°28' E 013°04'3 0.2
2017-Apr-15 17:19N 66°30' E 012°58'0 0.7
2017-Apr-15 17:00N 66°30' E 012°58'20 0.8
2017-Apr-14 16:09N 66°11' E 012°39'61 2.0
2017-Apr-13 08:52N 65°13' E 011°54'710.3
2017-Apr-13 08:11N 65°06' E 011°48'210.5
2017-Apr-13 08:00N 65°05' E 011°46'510.0
2017-Apr-13 07:30N 65°01' E 011°39'5 9.7
2017-Apr-13 07:00N 64°57' E 011°30'5 9.9
2017-Apr-13 06:30N 64°54' E 011°21'4 8.2
2017-Apr-13 06:00N 64°52' E 011°14'0 0.0
2017-Apr-13 05:30N 64°52' E 011°14'0 0.0
2017-Apr-13 05:00N 64°52' E 011°14'0 0.0
2017-Apr-13 04:30N 64°52' E 011°14'0 0.0
2017-Apr-13 04:00N 64°52' E 011°14'0 0.0
2017-Apr-13 03:30N 64°52' E 011°14'0 0.0
2017-Apr-13 03:00N 64°52' E 011°14'0 0.0
2017-Apr-13 02:30N 64°52' E 011°14'0 0.0
2017-Apr-13 02:00N 64°52' E 011°14'0 0.0
2017-Apr-13 01:30N 64°52' E 011°14'0 0.0
2017-Apr-13 01:00N 64°52' E 011°14'0 0.0
2017-Apr-13 00:30N 64°52' E 011°14'0 0.0
2017-Apr-13 00:00N 64°52' E 011°14'0 0.0
2017-Apr-12 23:30N 64°52' E 011°14'0 0.0
2017-Apr-12 23:00N 64°52' E 011°14'0 0.0
2017-Apr-12 22:30N 64°52' E 011°14'0 0.0
2017-Apr-12 22:00N 64°52' E 011°14'0 0.0
2017-Apr-12 21:30N 64°52' E 011°14'0 0.0
2017-Apr-12 21:00N 64°52' E 011°14'0 0.0
2017-Apr-12 20:30N 64°52' E 011°14'0 0.0
2017-Apr-12 20:00N 64°52' E 011°14'0 0.0
2017-Apr-12 19:30N 64°52' E 011°14'0 0.0
2017-Apr-12 19:00N 64°52' E 011°14'0 0.0
2017-Apr-12 18:23N 64°52' E 011°14'0 0.0
2017-Apr-12 17:51N 64°52' E 011°14'1 2.7
2017-Apr-12 17:30N 64°51' E 011°13'5 8.7
2017-Apr-12 16:55N 64°46' E 011°07'4 9.7
2017-Apr-12 16:29N 64°42' E 011°06'71 8.5
2017-Apr-12 08:04N 63°44' E 009°32'1 9.3
2017-Apr-12 08:00N 63°43' E 009°32'5 9.3
2017-Apr-12 07:31N 63°39' E 009°28'12 1.0
2017-Apr-11 19:24N 63°31' E 009°07'0 0.0
2017-Apr-11 19:00N 63°31' E 009°07'0 0.0
2017-Apr-11 18:30N 63°31' E 009°07'0 0.0
2017-Apr-11 18:00N 63°31' E 009°07'1 1.4
2017-Apr-11 17:12N 63°30' E 009°09'3 9.6
2017-Apr-11 16:53N 63°29' E 009°02'23 9.4
2017-Apr-11 14:29N 63°19' E 008°17'9 9.3
2017-Apr-11 13:30N 63°14' E 007°60'510.0
2017-Apr-11 13:00N 63°12' E 007°50'510.0
2017-Apr-11 12:30N 63°09' E 007°41'510.0
2017-Apr-11 12:00N 63°06' E 007°32'5 9.7
2017-Apr-11 11:30N 63°04' E 007°23'5 9.3
2017-Apr-11 11:00N 63°02' E 007°13'5 9.7
2017-Apr-11 10:28N 63°01' E 007°02'14 9.0
2017-Apr-11 08:57N 62°51' E 006°41'710.0
2017-Apr-11 08:18N 62°46' E 006°33'  
Track history (hours):
 
Tides and Currents Weather Stations Pressure Air Temp Water Temp Dewpoint Dewpoint Depression Visibility Wind Speed Wind Dir Waves Ship Positions

Nautilus Survey

Last reported at 2017-Apr-19 15:51 UTC. Time now 2017-Apr-24 13:21 UTC.
Position N 66°33' E 013°01'.

Length 22 m; draft 2 m.

Type: Dredging. MMSI: 259464000.

Date/timePositionNaut miles runAvg speedWind from/ knotsBaromVisibWave heightAir tempDewpointWater temp
2017-Apr-19 15:51N 66°33' E 013°01'2310.0
2017-Apr-19 13:33N 66°11' E 012°40'010.9
2017-Apr-19 13:30N 66°11' E 012°40'11 0.5
2017-Apr-18 15:13N 66°22' E 012°38'0 0.2
2017-Apr-18 15:00N 66°22' E 012°38'0 0.0
2017-Apr-18 14:30N 66°22' E 012°38'0 0.0
2017-Apr-18 13:30N 66°22' E 012°38'0 0.0
2017-Apr-18 13:00N 66°22' E 012°38'0 0.0
2017-Apr-18 12:30N 66°22' E 012°38'0 0.1
2017-Apr-18 12:00N 66°22' E 012°38'0 0.0
2017-Apr-18 11:31N 66°22' E 012°38'0 0.3
2017-Apr-18 11:00N 66°22' E 012°37'0 0.3
2017-Apr-18 10:30N 66°22' E 012°38'0 0.1
2017-Apr-18 09:58N 66°22' E 012°38'1 0.5
2017-Apr-18 08:02N 66°23' E 012°36'0 0.0
2017-Apr-18 07:52N 66°23' E 012°36'0 0.0
2017-Apr-18 07:23N 66°23' E 012°36'0 0.1
2017-Apr-18 07:00N 66°23' E 012°36'0 0.5
2017-Apr-18 06:31N 66°23' E 012°36'0 0.8
2017-Apr-18 05:57N 66°22' E 012°35'0 0.0
2017-Apr-18 05:30N 66°22' E 012°35'0 0.0
2017-Apr-18 05:01N 66°22' E 012°35'0 0.0
2017-Apr-18 04:30N 66°22' E 012°35'0 0.0
2017-Apr-18 04:00N 66°22' E 012°35'0 0.0
2017-Apr-18 03:28N 66°22' E 012°35'0 0.0
2017-Apr-18 03:00N 66°22' E 012°35'0 0.0
2017-Apr-18 02:30N 66°22' E 012°35'0 0.0
2017-Apr-18 01:57N 66°22' E 012°35'0 0.0
2017-Apr-18 01:28N 66°22' E 012°35'0 0.0
2017-Apr-18 01:01N 66°22' E 012°35'0 0.0
2017-Apr-18 00:30N 66°22' E 012°35'0 0.0
2017-Apr-17 23:58N 66°22' E 012°35'0 0.0
2017-Apr-17 23:30N 66°22' E 012°35'0 0.0
2017-Apr-17 23:00N 66°22' E 012°35'0 0.0
2017-Apr-17 22:30N 66°22' E 012°35'0 0.0
2017-Apr-17 22:00N 66°22' E 012°35'0 0.0
2017-Apr-17 21:30N 66°22' E 012°35'0 0.0
2017-Apr-17 21:00N 66°22' E 012°35'0 0.0
2017-Apr-17 20:30N 66°22' E 012°35'0 0.0
2017-Apr-17 20:00N 66°22' E 012°35'0 0.0
2017-Apr-17 19:30N 66°22' E 012°35'0 0.0
2017-Apr-17 19:00N 66°22' E 012°35'0 0.0
2017-Apr-17 18:30N 66°22' E 012°35'0 0.0
2017-Apr-17 17:59N 66°22' E 012°35'0 0.0
2017-Apr-17 17:30N 66°22' E 012°35'0 0.6
2017-Apr-17 16:57N 66°23' E 012°36'0 0.6
2017-Apr-17 16:30N 66°23' E 012°36'5 7.5
2017-Apr-17 15:50N 66°23' E 012°49'0 0.6
2017-Apr-17 15:30N 66°23' E 012°48'2 2.8
2017-Apr-17 14:56N 66°22' E 012°52'6 3.1
2017-Apr-17 12:59N 66°28' E 012°58'1 0.3
2017-Apr-17 08:27N 66°28' E 013°01'1 0.6
2017-Apr-17 06:30N 66°28' E 013°04'3 5.4
2017-Apr-17 05:58N 66°29' E 012°58'0 0.0
2017-Apr-17 03:11N 66°29' E 012°58'0 0.0
2017-Apr-17 02:06N 66°29' E 012°58'0 0.0
2017-Apr-16 23:33N 66°29' E 012°58'0 0.0
2017-Apr-16 23:29N 66°29' E 012°58'0 0.0
2017-Apr-16 18:09N 66°29' E 012°58'0 0.0
2017-Apr-16 17:53N 66°29' E 012°58'0 0.0
2017-Apr-16 17:07N 66°29' E 012°58'0 0.0
2017-Apr-16 16:59N 66°29' E 012°58'2 3.0
2017-Apr-16 16:23N 66°28' E 013°02'1 0.4
2017-Apr-16 13:02N 66°28' E 012°58'0 0.0
2017-Apr-16 12:48N 66°28' E 012°58'0 0.0
2017-Apr-16 12:30N 66°28' E 012°58'0 0.0
2017-Apr-16 11:58N 66°28' E 012°58'0 0.0
2017-Apr-16 10:41N 66°28' E 012°58'0 0.0
2017-Apr-16 10:23N 66°28' E 012°58'0 0.0
2017-Apr-16 09:47N 66°28' E 012°58'0 0.0
2017-Apr-16 09:28N 66°28' E 012°58'0 0.0
2017-Apr-16 09:00N 66°28' E 012°58'2 3.5
2017-Apr-16 08:23N 66°28' E 013°04'0 0.6
2017-Apr-16 07:58N 66°28' E 013°04'3 0.2
2017-Apr-15 17:19N 66°30' E 012°58'0 0.7
2017-Apr-15 17:00N 66°30' E 012°58'20 0.8
2017-Apr-14 16:09N 66°11' E 012°39'61 2.0
2017-Apr-13 08:52N 65°13' E 011°54'710.3
2017-Apr-13 08:11N 65°06' E 011°48'210.5
2017-Apr-13 08:00N 65°05' E 011°46'510.0
2017-Apr-13 07:30N 65°01' E 011°39'5 9.7
2017-Apr-13 07:00N 64°57' E 011°30'5 9.9
2017-Apr-13 06:30N 64°54' E 011°21'4 8.2
2017-Apr-13 06:00N 64°52' E 011°14'0 0.0
2017-Apr-13 05:30N 64°52' E 011°14'0 0.0
2017-Apr-13 05:00N 64°52' E 011°14'0 0.0
2017-Apr-13 04:30N 64°52' E 011°14'0 0.0
2017-Apr-13 04:00N 64°52' E 011°14'0 0.0
2017-Apr-13 03:30N 64°52' E 011°14'0 0.0
2017-Apr-13 03:00N 64°52' E 011°14'0 0.0
2017-Apr-13 02:30N 64°52' E 011°14'0 0.0
2017-Apr-13 02:00N 64°52' E 011°14'0 0.0
2017-Apr-13 01:30N 64°52' E 011°14'0 0.0
2017-Apr-13 01:00N 64°52' E 011°14'0 0.0
2017-Apr-13 00:30N 64°52' E 011°14'0 0.0
2017-Apr-13 00:00N 64°52' E 011°14'0 0.0
2017-Apr-12 23:30N 64°52' E 011°14'0 0.0
2017-Apr-12 23:00N 64°52' E 011°14'0 0.0
2017-Apr-12 22:30N 64°52' E 011°14'0 0.0
2017-Apr-12 22:00N 64°52' E 011°14'0 0.0
2017-Apr-12 21:30N 64°52' E 011°14'0 0.0
2017-Apr-12 21:00N 64°52' E 011°14'0 0.0
2017-Apr-12 20:30N 64°52' E 011°14'0 0.0
2017-Apr-12 20:00N 64°52' E 011°14'0 0.0
2017-Apr-12 19:30N 64°52' E 011°14'0 0.0
2017-Apr-12 19:00N 64°52' E 011°14'0 0.0
2017-Apr-12 18:23N 64°52' E 011°14'0 0.0
2017-Apr-12 17:51N 64°52' E 011°14'1 2.7
2017-Apr-12 17:30N 64°51' E 011°13'5 8.7
2017-Apr-12 16:55N 64°46' E 011°07'4 9.7
2017-Apr-12 16:29N 64°42' E 011°06'71 8.5
2017-Apr-12 08:04N 63°44' E 009°32'1 9.3
2017-Apr-12 08:00N 63°43' E 009°32'5 9.3
2017-Apr-12 07:31N 63°39' E 009°28'12 1.0
2017-Apr-11 19:24N 63°31' E 009°07'0 0.0
2017-Apr-11 19:00N 63°31' E 009°07'0 0.0
2017-Apr-11 18:30N 63°31' E 009°07'0 0.0
2017-Apr-11 18:00N 63°31' E 009°07'1 1.4
2017-Apr-11 17:12N 63°30' E 009°09'3 9.6
2017-Apr-11 16:53N 63°29' E 009°02'23 9.4
2017-Apr-11 14:29N 63°19' E 008°17'9 9.3
2017-Apr-11 13:30N 63°14' E 007°60'510.0
2017-Apr-11 13:00N 63°12' E 007°50'510.0
2017-Apr-11 12:30N 63°09' E 007°41'510.0
2017-Apr-11 12:00N 63°06' E 007°32'5 9.7
2017-Apr-11 11:30N 63°04' E 007°23'5 9.3
2017-Apr-11 11:00N 63°02' E 007°13'5 9.7
2017-Apr-11 10:28N 63°01' E 007°02'14 9.0
2017-Apr-11 08:57N 62°51' E 006°41'710.0
2017-Apr-11 08:18N 62°46' E 006°33'  

Dump ship's entire track history